sensor_id;sensor_type;location;lat;lon;timestamp;P1;durP1;ratioP1;P2;durP2;ratioP2
46322;SDS011;32044;52.386;13.278;2023-02-01T00:00:42;29.42;;;4.93;;
46322;SDS011;32044;52.386;13.278;2023-02-01T00:03:09;28.02;;;5.15;;
46322;SDS011;32044;52.386;13.278;2023-02-01T00:05:38;32.90;;;5.13;;
46322;SDS011;32044;52.386;13.278;2023-02-01T00:08:06;33.38;;;5.07;;
46322;SDS011;32044;52.386;13.278;2023-02-01T00:10:33;25.58;;;5.78;;
46322;SDS011;32044;52.386;13.278;2023-02-01T00:13:01;22.95;;;4.53;;
46322;SDS011;32044;52.386;13.278;2023-02-01T00:15:28;27.40;;;5.20;;
46322;SDS011;32044;52.386;13.278;2023-02-01T00:17:57;22.77;;;4.28;;
46322;SDS011;32044;52.386;13.278;2023-02-01T00:20:25;18.38;;;4.07;;
46322;SDS011;32044;52.386;13.278;2023-02-01T00:22:52;28.08;;;4.78;;
46322;SDS011;32044;52.386;13.278;2023-02-01T00:25:20;28.15;;;4.93;;
46322;SDS011;32044;52.386;13.278;2023-02-01T00:27:48;35.45;;;4.40;;
46322;SDS011;32044;52.386;13.278;2023-02-01T00:30:16;25.70;;;4.30;;
46322;SDS011;32044;52.386;13.278;2023-02-01T00:32:45;26.30;;;5.15;;
46322;SDS011;32044;52.386;13.278;2023-02-01T00:35:14;35.53;;;5.18;;
46322;SDS011;32044;52.386;13.278;2023-02-01T00:37:42;25.00;;;4.05;;
46322;SDS011;32044;52.386;13.278;2023-02-01T00:40:10;26.80;;;4.68;;
46322;SDS011;32044;52.386;13.278;2023-02-01T00:42:38;28.52;;;4.35;;
46322;SDS011;32044;52.386;13.278;2023-02-01T00:45:06;28.40;;;5.45;;
46322;SDS011;32044;52.386;13.278;2023-02-01T00:47:34;24.38;;;3.92;;
46322;SDS011;32044;52.386;13.278;2023-02-01T00:50:01;25.40;;;4.50;;
46322;SDS011;32044;52.386;13.278;2023-02-01T00:52:31;28.05;;;5.00;;
46322;SDS011;32044;52.386;13.278;2023-02-01T00:54:58;20.23;;;4.70;;
46322;SDS011;32044;52.386;13.278;2023-02-01T00:57:26;18.95;;;3.83;;
46322;SDS011;32044;52.386;13.278;2023-02-01T00:59:53;23.88;;;4.32;;
46322;SDS011;32044;52.386;13.278;2023-02-01T01:02:21;20.63;;;3.67;;
46322;SDS011;32044;52.386;13.278;2023-02-01T01:04:48;27.70;;;4.63;;
46322;SDS011;32044;52.386;13.278;2023-02-01T01:07:16;25.27;;;4.10;;
46322;SDS011;32044;52.386;13.278;2023-02-01T01:09:44;25.92;;;3.70;;
46322;SDS011;32044;52.386;13.278;2023-02-01T01:12:12;21.67;;;3.90;;
46322;SDS011;32044;52.386;13.278;2023-02-01T01:14:39;19.15;;;4.10;;
46322;SDS011;32044;52.386;13.278;2023-02-01T01:17:07;23.75;;;3.45;;
46322;SDS011;32044;52.386;13.278;2023-02-01T01:19:34;26.15;;;3.97;;
46322;SDS011;32044;52.386;13.278;2023-02-01T01:22:02;27.58;;;5.00;;
46322;SDS011;32044;52.386;13.278;2023-02-01T01:24:29;23.05;;;4.55;;
46322;SDS011;32044;52.386;13.278;2023-02-01T01:26:58;25.73;;;4.78;;
46322;SDS011;32044;52.386;13.278;2023-02-01T01:29:26;21.73;;;3.92;;
46322;SDS011;32044;52.386;13.278;2023-02-01T01:31:53;23.70;;;5.13;;
46322;SDS011;32044;52.386;13.278;2023-02-01T01:34:21;22.13;;;4.70;;
46322;SDS011;32044;52.386;13.278;2023-02-01T01:36:48;24.67;;;3.78;;
46322;SDS011;32044;52.386;13.278;2023-02-01T01:39:16;22.27;;;4.68;;
46322;SDS011;32044;52.386;13.278;2023-02-01T01:41:44;19.33;;;3.83;;
46322;SDS011;32044;52.386;13.278;2023-02-01T01:47:13;31.90;;;4.72;;
46322;SDS011;32044;52.386;13.278;2023-02-01T01:49:41;24.90;;;5.10;;
46322;SDS011;32044;52.386;13.278;2023-02-01T01:52:09;16.65;;;3.95;;
46322;SDS011;32044;52.386;13.278;2023-02-01T01:54:38;18.52;;;4.25;;
46322;SDS011;32044;52.386;13.278;2023-02-01T01:57:09;28.65;;;4.97;;
46322;SDS011;32044;52.386;13.278;2023-02-01T01:59:38;26.63;;;4.43;;
46322;SDS011;32044;52.386;13.278;2023-02-01T02:02:07;25.98;;;4.18;;
46322;SDS011;32044;52.386;13.278;2023-02-01T02:04:36;22.92;;;4.00;;
46322;SDS011;32044;52.386;13.278;2023-02-01T02:07:05;24.85;;;3.85;;
46322;SDS011;32044;52.386;13.278;2023-02-01T02:09:35;15.10;;;3.35;;
46322;SDS011;32044;52.386;13.278;2023-02-01T02:12:04;29.35;;;5.00;;
46322;SDS011;32044;52.386;13.278;2023-02-01T02:14:32;22.23;;;4.38;;
46322;SDS011;32044;52.386;13.278;2023-02-01T02:17:11;26.10;;;4.68;;
46322;SDS011;32044;52.386;13.278;2023-02-01T02:26:23;25.27;;;4.22;;
46322;SDS011;32044;52.386;13.278;2023-02-01T02:28:59;29.73;;;4.85;;
46322;SDS011;32044;52.386;13.278;2023-02-01T02:31:54;20.50;;;4.47;;
46322;SDS011;32044;52.386;13.278;2023-02-01T02:34:31;20.80;;;4.38;;
46322;SDS011;32044;52.386;13.278;2023-02-01T02:37:03;15.82;;;3.55;;
46322;SDS011;32044;52.386;13.278;2023-02-01T02:39:36;26.17;;;4.28;;
46322;SDS011;32044;52.386;13.278;2023-02-01T02:42:10;30.05;;;5.60;;
46322;SDS011;32044;52.386;13.278;2023-02-01T02:45:00;23.63;;;3.63;;
46322;SDS011;32044;52.386;13.278;2023-02-01T02:47:49;25.85;;;4.82;;
46322;SDS011;32044;52.386;13.278;2023-02-01T02:50:24;20.48;;;3.97;;
46322;SDS011;32044;52.386;13.278;2023-02-01T02:53:12;21.88;;;4.15;;
46322;SDS011;32044;52.386;13.278;2023-02-01T02:55:58;29.98;;;4.70;;
46322;SDS011;32044;52.386;13.278;2023-02-01T02:58:45;25.02;;;4.97;;
46322;SDS011;32044;52.386;13.278;2023-02-01T03:01:31;30.17;;;5.13;;
46322;SDS011;32044;52.386;13.278;2023-02-01T03:04:17;22.83;;;3.80;;
46322;SDS011;32044;52.386;13.278;2023-02-01T03:06:47;29.13;;;5.38;;
46322;SDS011;32044;52.386;13.278;2023-02-01T03:09:16;23.30;;;4.03;;
46322;SDS011;32044;52.386;13.278;2023-02-01T03:11:46;19.73;;;4.13;;
46322;SDS011;32044;52.386;13.278;2023-02-01T03:14:33;26.55;;;3.92;;
46322;SDS011;32044;52.386;13.278;2023-02-01T03:17:03;26.27;;;4.60;;
46322;SDS011;32044;52.386;13.278;2023-02-01T03:19:33;22.42;;;4.13;;
46322;SDS011;32044;52.386;13.278;2023-02-01T03:22:05;22.83;;;3.90;;
46322;SDS011;32044;52.386;13.278;2023-02-01T03:24:36;23.77;;;4.55;;
46322;SDS011;32044;52.386;13.278;2023-02-01T03:27:07;33.40;;;5.05;;
46322;SDS011;32044;52.386;13.278;2023-02-01T03:29:39;35.25;;;5.28;;
46322;SDS011;32044;52.386;13.278;2023-02-01T03:32:08;29.50;;;4.60;;
46322;SDS011;32044;52.386;13.278;2023-02-01T03:34:36;30.52;;;5.15;;
46322;SDS011;32044;52.386;13.278;2023-02-01T03:37:05;23.67;;;4.45;;
46322;SDS011;32044;52.386;13.278;2023-02-01T03:39:36;22.55;;;4.50;;
46322;SDS011;32044;52.386;13.278;2023-02-01T03:42:08;18.33;;;3.63;;
46322;SDS011;32044;52.386;13.278;2023-02-01T03:44:38;29.85;;;4.28;;
46322;SDS011;32044;52.386;13.278;2023-02-01T03:47:09;31.38;;;4.72;;
46322;SDS011;32044;52.386;13.278;2023-02-01T03:49:40;27.02;;;4.30;;
46322;SDS011;32044;52.386;13.278;2023-02-01T03:52:13;35.65;;;6.47;;
46322;SDS011;32044;52.386;13.278;2023-02-01T03:54:42;23.50;;;5.20;;
46322;SDS011;32044;52.386;13.278;2023-02-01T03:57:11;25.65;;;4.40;;
46322;SDS011;32044;52.386;13.278;2023-02-01T03:59:41;41.40;;;5.30;;
46322;SDS011;32044;52.386;13.278;2023-02-01T04:02:08;24.02;;;3.90;;
46322;SDS011;32044;52.386;13.278;2023-02-01T04:04:36;19.33;;;4.05;;
46322;SDS011;32044;52.386;13.278;2023-02-01T04:07:04;27.48;;;5.22;;
46322;SDS011;32044;52.386;13.278;2023-02-01T04:09:33;23.40;;;4.97;;
46322;SDS011;32044;52.386;13.278;2023-02-01T04:12:00;33.50;;;4.57;;
46322;SDS011;32044;52.386;13.278;2023-02-01T04:14:28;27.67;;;4.47;;
46322;SDS011;32044;52.386;13.278;2023-02-01T04:16:55;27.40;;;4.32;;
46322;SDS011;32044;52.386;13.278;2023-02-01T04:19:23;17.90;;;4.80;;
46322;SDS011;32044;52.386;13.278;2023-02-01T04:21:51;26.55;;;4.53;;
46322;SDS011;32044;52.386;13.278;2023-02-01T04:24:18;17.85;;;3.90;;
46322;SDS011;32044;52.386;13.278;2023-02-01T04:26:47;20.92;;;4.63;;
46322;SDS011;32044;52.386;13.278;2023-02-01T04:29:14;24.20;;;4.25;;
46322;SDS011;32044;52.386;13.278;2023-02-01T04:31:42;30.17;;;5.28;;
46322;SDS011;32044;52.386;13.278;2023-02-01T04:34:09;30.27;;;4.82;;
46322;SDS011;32044;52.386;13.278;2023-02-01T04:36:37;27.23;;;4.90;;
46322;SDS011;32044;52.386;13.278;2023-02-01T04:39:04;25.05;;;5.05;;
46322;SDS011;32044;52.386;13.278;2023-02-01T04:41:32;32.30;;;4.72;;
46322;SDS011;32044;52.386;13.278;2023-02-01T04:44:01;27.65;;;4.93;;
46322;SDS011;32044;52.386;13.278;2023-02-01T04:46:28;31.65;;;5.68;;
46322;SDS011;32044;52.386;13.278;2023-02-01T04:48:56;35.80;;;5.10;;
46322;SDS011;32044;52.386;13.278;2023-02-01T04:51:23;33.58;;;5.68;;
46322;SDS011;32044;52.386;13.278;2023-02-01T04:53:51;29.85;;;5.47;;
46322;SDS011;32044;52.386;13.278;2023-02-01T04:56:19;23.92;;;4.30;;
46322;SDS011;32044;52.386;13.278;2023-02-01T04:58:46;28.77;;;5.53;;
46322;SDS011;32044;52.386;13.278;2023-02-01T05:01:15;35.10;;;5.90;;
46322;SDS011;32044;52.386;13.278;2023-02-01T05:03:43;34.45;;;5.55;;
46322;SDS011;32044;52.386;13.278;2023-02-01T05:06:10;29.13;;;5.18;;
46322;SDS011;32044;52.386;13.278;2023-02-01T05:08:38;31.63;;;6.32;;
46322;SDS011;32044;52.386;13.278;2023-02-01T05:11:05;25.05;;;5.57;;
46322;SDS011;32044;52.386;13.278;2023-02-01T05:13:53;32.60;;;5.55;;
46322;SDS011;32044;52.386;13.278;2023-02-01T05:16:21;33.92;;;6.03;;
46322;SDS011;32044;52.386;13.278;2023-02-01T05:18:48;35.38;;;6.47;;
46322;SDS011;32044;52.386;13.278;2023-02-01T05:21:16;26.42;;;5.03;;
46322;SDS011;32044;52.386;13.278;2023-02-01T05:23:43;27.70;;;4.93;;
46322;SDS011;32044;52.386;13.278;2023-02-01T05:26:28;32.53;;;4.82;;
46322;SDS011;32044;52.386;13.278;2023-02-01T05:28:55;29.20;;;4.82;;
46322;SDS011;32044;52.386;13.278;2023-02-01T05:31:25;30.17;;;5.55;;
46322;SDS011;32044;52.386;13.278;2023-02-01T05:33:53;35.45;;;5.03;;
46322;SDS011;32044;52.386;13.278;2023-02-01T05:36:20;32.08;;;4.95;;
46322;SDS011;32044;52.386;13.278;2023-02-01T05:38:48;31.88;;;5.63;;
46322;SDS011;32044;52.386;13.278;2023-02-01T05:41:15;32.03;;;4.93;;
46322;SDS011;32044;52.386;13.278;2023-02-01T05:43:43;33.35;;;4.93;;
46322;SDS011;32044;52.386;13.278;2023-02-01T05:46:10;29.00;;;4.88;;
46322;SDS011;32044;52.386;13.278;2023-02-01T05:48:40;40.63;;;6.72;;
46322;SDS011;32044;52.386;13.278;2023-02-01T05:51:09;29.23;;;4.95;;
46322;SDS011;32044;52.386;13.278;2023-02-01T05:53:37;29.00;;;4.97;;
46322;SDS011;32044;52.386;13.278;2023-02-01T05:56:04;27.23;;;4.95;;
46322;SDS011;32044;52.386;13.278;2023-02-01T05:58:33;33.67;;;6.30;;
46322;SDS011;32044;52.386;13.278;2023-02-01T06:01:00;24.38;;;4.85;;
46322;SDS011;32044;52.386;13.278;2023-02-01T06:03:28;25.63;;;4.22;;
46322;SDS011;32044;52.386;13.278;2023-02-01T06:05:57;32.00;;;5.53;;
46322;SDS011;32044;52.386;13.278;2023-02-01T06:08:26;23.27;;;4.55;;
46322;SDS011;32044;52.386;13.278;2023-02-01T06:10:57;28.13;;;4.97;;
46322;SDS011;32044;52.386;13.278;2023-02-01T06:13:25;26.45;;;5.03;;
46322;SDS011;32044;52.386;13.278;2023-02-01T06:15:52;23.60;;;4.47;;
46322;SDS011;32044;52.386;13.278;2023-02-01T06:18:22;24.05;;;4.60;;
46322;SDS011;32044;52.386;13.278;2023-02-01T06:20:51;28.88;;;4.97;;
46322;SDS011;32044;52.386;13.278;2023-02-01T06:23:21;24.48;;;4.53;;
46322;SDS011;32044;52.386;13.278;2023-02-01T06:25:50;31.27;;;5.45;;
46322;SDS011;32044;52.386;13.278;2023-02-01T06:28:18;28.15;;;5.03;;
46322;SDS011;32044;52.386;13.278;2023-02-01T06:30:46;23.45;;;4.30;;
46322;SDS011;32044;52.386;13.278;2023-02-01T06:33:14;20.73;;;4.75;;
46322;SDS011;32044;52.386;13.278;2023-02-01T06:35:42;21.60;;;4.57;;
46322;SDS011;32044;52.386;13.278;2023-02-01T06:38:10;21.02;;;4.05;;
46322;SDS011;32044;52.386;13.278;2023-02-01T06:40:39;22.23;;;5.32;;
46322;SDS011;32044;52.386;13.278;2023-02-01T06:43:08;28.30;;;4.68;;
46322;SDS011;32044;52.386;13.278;2023-02-01T06:45:35;35.53;;;5.63;;
46322;SDS011;32044;52.386;13.278;2023-02-01T06:48:03;24.63;;;4.60;;
46322;SDS011;32044;52.386;13.278;2023-02-01T06:50:31;31.58;;;5.53;;
46322;SDS011;32044;52.386;13.278;2023-02-01T06:52:58;21.67;;;4.78;;
46322;SDS011;32044;52.386;13.278;2023-02-01T06:55:26;23.55;;;4.90;;
46322;SDS011;32044;52.386;13.278;2023-02-01T06:57:55;32.08;;;5.28;;
46322;SDS011;32044;52.386;13.278;2023-02-01T07:00:22;26.38;;;4.93;;
46322;SDS011;32044;52.386;13.278;2023-02-01T07:02:51;24.70;;;5.85;;
46322;SDS011;32044;52.386;13.278;2023-02-01T07:05:18;28.73;;;6.20;;
46322;SDS011;32044;52.386;13.278;2023-02-01T07:07:46;26.88;;;6.22;;
46322;SDS011;32044;52.386;13.278;2023-02-01T07:10:13;26.55;;;5.80;;
46322;SDS011;32044;52.386;13.278;2023-02-01T07:12:41;23.80;;;5.57;;
46322;SDS011;32044;52.386;13.278;2023-02-01T07:15:10;24.42;;;4.97;;
46322;SDS011;32044;52.386;13.278;2023-02-01T07:17:38;24.40;;;5.53;;
46322;SDS011;32044;52.386;13.278;2023-02-01T07:20:06;22.20;;;4.78;;
46322;SDS011;32044;52.386;13.278;2023-02-01T07:22:34;20.58;;;4.82;;
46322;SDS011;32044;52.386;13.278;2023-02-01T07:25:02;29.25;;;5.35;;
46322;SDS011;32044;52.386;13.278;2023-02-01T07:27:33;25.30;;;5.30;;
46322;SDS011;32044;52.386;13.278;2023-02-01T07:30:00;26.88;;;4.65;;
46322;SDS011;32044;52.386;13.278;2023-02-01T07:32:30;24.77;;;4.53;;
46322;SDS011;32044;52.386;13.278;2023-02-01T07:34:58;21.50;;;5.65;;
46322;SDS011;32044;52.386;13.278;2023-02-01T07:37:25;25.13;;;5.13;;
46322;SDS011;32044;52.386;13.278;2023-02-01T07:39:53;25.00;;;4.70;;
46322;SDS011;32044;52.386;13.278;2023-02-01T07:42:20;27.63;;;5.15;;
46322;SDS011;32044;52.386;13.278;2023-02-01T07:44:48;21.42;;;5.40;;
46322;SDS011;32044;52.386;13.278;2023-02-01T07:47:15;23.98;;;4.60;;
46322;SDS011;32044;52.386;13.278;2023-02-01T07:49:44;22.88;;;5.18;;
46322;SDS011;32044;52.386;13.278;2023-02-01T07:52:11;29.25;;;5.13;;
46322;SDS011;32044;52.386;13.278;2023-02-01T07:54:42;26.17;;;4.97;;
46322;SDS011;32044;52.386;13.278;2023-02-01T07:57:10;21.67;;;4.50;;
46322;SDS011;32044;52.386;13.278;2023-02-01T07:59:39;26.15;;;4.90;;
46322;SDS011;32044;52.386;13.278;2023-02-01T08:02:27;24.60;;;4.88;;
46322;SDS011;32044;52.386;13.278;2023-02-01T08:04:55;20.35;;;4.80;;
46322;SDS011;32044;52.386;13.278;2023-02-01T08:07:23;23.90;;;5.00;;
46322;SDS011;32044;52.386;13.278;2023-02-01T08:09:51;22.17;;;4.85;;
46322;SDS011;32044;52.386;13.278;2023-02-01T08:12:18;23.13;;;4.82;;
46322;SDS011;32044;52.386;13.278;2023-02-01T08:14:46;23.10;;;4.75;;
46322;SDS011;32044;52.386;13.278;2023-02-01T08:17:13;18.58;;;4.25;;
46322;SDS011;32044;52.386;13.278;2023-02-01T08:19:41;17.50;;;4.78;;
46322;SDS011;32044;52.386;13.278;2023-02-01T08:22:10;28.25;;;5.65;;
46322;SDS011;32044;52.386;13.278;2023-02-01T08:24:37;20.02;;;5.45;;
46322;SDS011;32044;52.386;13.278;2023-02-01T08:27:06;14.32;;;4.60;;
46322;SDS011;32044;52.386;13.278;2023-02-01T08:29:34;17.33;;;5.03;;
46322;SDS011;32044;52.386;13.278;2023-02-01T08:32:01;23.45;;;5.28;;
46322;SDS011;32044;52.386;13.278;2023-02-01T08:34:29;21.05;;;5.03;;
46322;SDS011;32044;52.386;13.278;2023-02-01T08:36:58;15.35;;;5.43;;
46322;SDS011;32044;52.386;13.278;2023-02-01T08:39:27;25.17;;;5.43;;
46322;SDS011;32044;52.386;13.278;2023-02-01T08:41:55;21.15;;;5.18;;
46322;SDS011;32044;52.386;13.278;2023-02-01T08:44:40;15.57;;;5.40;;
46322;SDS011;32044;52.386;13.278;2023-02-01T08:47:07;15.07;;;4.78;;
46322;SDS011;32044;52.386;13.278;2023-02-01T08:49:35;11.95;;;4.00;;
46322;SDS011;32044;52.386;13.278;2023-02-01T08:52:02;13.63;;;3.58;;
46322;SDS011;32044;52.386;13.278;2023-02-01T08:54:42;11.90;;;3.67;;
46322;SDS011;32044;52.386;13.278;2023-02-01T08:57:09;10.25;;;3.15;;
46322;SDS011;32044;52.386;13.278;2023-02-01T08:59:37;10.48;;;3.40;;
46322;SDS011;32044;52.386;13.278;2023-02-01T09:02:04;12.27;;;3.60;;
46322;SDS011;32044;52.386;13.278;2023-02-01T09:04:31;10.10;;;3.70;;
46322;SDS011;32044;52.386;13.278;2023-02-01T09:06:59;5.80;;;3.17;;
46322;SDS011;32044;52.386;13.278;2023-02-01T09:09:27;7.18;;;2.53;;
46322;SDS011;32044;52.386;13.278;2023-02-01T09:11:56;9.13;;;3.08;;
46322;SDS011;32044;52.386;13.278;2023-02-01T09:14:23;11.30;;;2.95;;
46322;SDS011;32044;52.386;13.278;2023-02-01T09:16:51;6.32;;;2.75;;
46322;SDS011;32044;52.386;13.278;2023-02-01T09:19:18;9.90;;;2.97;;
46322;SDS011;32044;52.386;13.278;2023-02-01T09:21:52;7.32;;;2.47;;
46322;SDS011;32044;52.386;13.278;2023-02-01T09:24:19;12.18;;;2.40;;
46322;SDS011;32044;52.386;13.278;2023-02-01T09:26:47;5.45;;;2.47;;
46322;SDS011;32044;52.386;13.278;2023-02-01T09:29:16;8.43;;;2.67;;
46322;SDS011;32044;52.386;13.278;2023-02-01T09:31:44;11.73;;;2.40;;
46322;SDS011;32044;52.386;13.278;2023-02-01T09:34:28;8.80;;;2.33;;
46322;SDS011;32044;52.386;13.278;2023-02-01T09:36:55;7.88;;;2.67;;
46322;SDS011;32044;52.386;13.278;2023-02-01T09:39:23;6.78;;;2.08;;
46322;SDS011;32044;52.386;13.278;2023-02-01T09:41:53;5.22;;;2.10;;
46322;SDS011;32044;52.386;13.278;2023-02-01T09:44:37;8.40;;;2.35;;
46322;SDS011;32044;52.386;13.278;2023-02-01T09:47:13;8.60;;;2.47;;
46322;SDS011;32044;52.386;13.278;2023-02-01T09:49:45;6.40;;;2.13;;
46322;SDS011;32044;52.386;13.278;2023-02-01T09:52:17;9.07;;;2.72;;
46322;SDS011;32044;52.386;13.278;2023-02-01T09:54:49;6.30;;;2.17;;
46322;SDS011;32044;52.386;13.278;2023-02-01T09:57:24;8.45;;;2.83;;
46322;SDS011;32044;52.386;13.278;2023-02-01T09:59:55;6.85;;;2.17;;
46322;SDS011;32044;52.386;13.278;2023-02-01T10:02:27;7.30;;;2.78;;
46322;SDS011;32044;52.386;13.278;2023-02-01T10:04:57;7.47;;;1.83;;
46322;SDS011;32044;52.386;13.278;2023-02-01T10:07:27;9.88;;;2.20;;
46322;SDS011;32044;52.386;13.278;2023-02-01T10:10:01;5.13;;;1.63;;
46322;SDS011;32044;52.386;13.278;2023-02-01T10:15:28;4.28;;;1.65;;
46322;SDS011;32044;52.386;13.278;2023-02-01T10:18:37;5.63;;;1.38;;
46322;SDS011;32044;52.386;13.278;2023-02-01T10:21:17;5.18;;;1.65;;
46322;SDS011;32044;52.386;13.278;2023-02-01T10:23:53;3.83;;;1.30;;
46322;SDS011;32044;52.386;13.278;2023-02-01T10:26:42;4.82;;;1.70;;
46322;SDS011;32044;52.386;13.278;2023-02-01T10:29:14;5.65;;;1.67;;
46322;SDS011;32044;52.386;13.278;2023-02-01T10:31:45;7.13;;;1.90;;
46322;SDS011;32044;52.386;13.278;2023-02-01T10:34:15;4.65;;;1.58;;
46322;SDS011;32044;52.386;13.278;2023-02-01T10:36:49;5.63;;;1.50;;
46322;SDS011;32044;52.386;13.278;2023-02-01T10:39:19;6.60;;;1.90;;
46322;SDS011;32044;52.386;13.278;2023-02-01T10:41:47;6.68;;;1.80;;
46322;SDS011;32044;52.386;13.278;2023-02-01T10:44:16;6.43;;;1.65;;
46322;SDS011;32044;52.386;13.278;2023-02-01T10:46:46;8.35;;;2.10;;
46322;SDS011;32044;52.386;13.278;2023-02-01T10:49:16;5.72;;;2.05;;
46322;SDS011;32044;52.386;13.278;2023-02-01T10:51:45;10.03;;;2.23;;
46322;SDS011;32044;52.386;13.278;2023-02-01T10:54:16;6.72;;;1.98;;
46322;SDS011;32044;52.386;13.278;2023-02-01T10:56:46;7.78;;;1.85;;
46322;SDS011;32044;52.386;13.278;2023-02-01T10:59:15;8.32;;;1.92;;
46322;SDS011;32044;52.386;13.278;2023-02-01T11:01:45;6.22;;;1.92;;
46322;SDS011;32044;52.386;13.278;2023-02-01T11:04:17;11.52;;;2.25;;
46322;SDS011;32044;52.386;13.278;2023-02-01T11:06:46;8.88;;;2.00;;
46322;SDS011;32044;52.386;13.278;2023-02-01T11:09:16;6.28;;;1.92;;
46322;SDS011;32044;52.386;13.278;2023-02-01T11:11:53;8.07;;;2.00;;
46322;SDS011;32044;52.386;13.278;2023-02-01T11:14:36;10.10;;;2.17;;
46322;SDS011;32044;52.386;13.278;2023-02-01T11:17:17;12.32;;;2.33;;
46322;SDS011;32044;52.386;13.278;2023-02-01T11:19:55;11.13;;;2.40;;
46322;SDS011;32044;52.386;13.278;2023-02-01T11:22:25;9.15;;;2.83;;
46322;SDS011;32044;52.386;13.278;2023-02-01T11:24:53;8.57;;;2.15;;
46322;SDS011;32044;52.386;13.278;2023-02-01T11:27:21;10.95;;;2.22;;
46322;SDS011;32044;52.386;13.278;2023-02-01T11:29:53;8.95;;;2.00;;
46322;SDS011;32044;52.386;13.278;2023-02-01T11:32:24;7.68;;;2.15;;
46322;SDS011;32044;52.386;13.278;2023-02-01T11:34:53;8.43;;;2.95;;
46322;SDS011;32044;52.386;13.278;2023-02-01T11:37:24;11.15;;;2.33;;
46322;SDS011;32044;52.386;13.278;2023-02-01T11:39:53;6.50;;;1.88;;
46322;SDS011;32044;52.386;13.278;2023-02-01T11:42:22;6.95;;;2.28;;
46322;SDS011;32044;52.386;13.278;2023-02-01T11:44:50;9.18;;;2.20;;
46322;SDS011;32044;52.386;13.278;2023-02-01T11:47:26;11.82;;;2.75;;
46322;SDS011;32044;52.386;13.278;2023-02-01T11:49:55;11.07;;;2.55;;
46322;SDS011;32044;52.386;13.278;2023-02-01T11:52:35;8.73;;;2.22;;
46322;SDS011;32044;52.386;13.278;2023-02-01T11:55:15;12.20;;;2.50;;
46322;SDS011;32044;52.386;13.278;2023-02-01T11:57:53;11.63;;;2.92;;
46322;SDS011;32044;52.386;13.278;2023-02-01T12:00:35;13.52;;;3.00;;
46322;SDS011;32044;52.386;13.278;2023-02-01T12:03:18;8.23;;;2.58;;
46322;SDS011;32044;52.386;13.278;2023-02-01T12:06:05;7.78;;;2.45;;
46322;SDS011;32044;52.386;13.278;2023-02-01T12:08:41;12.07;;;2.97;;
46322;SDS011;32044;52.386;13.278;2023-02-01T12:11:32;14.55;;;2.90;;
46322;SDS011;32044;52.386;13.278;2023-02-01T12:14:09;13.10;;;2.75;;
46322;SDS011;32044;52.386;13.278;2023-02-01T12:16:48;17.60;;;3.75;;
46322;SDS011;32044;52.386;13.278;2023-02-01T12:19:28;13.15;;;2.83;;
46322;SDS011;32044;52.386;13.278;2023-02-01T12:22:04;10.57;;;2.90;;
46322;SDS011;32044;52.386;13.278;2023-02-01T12:24:43;11.75;;;2.30;;
46322;SDS011;32044;52.386;13.278;2023-02-01T12:27:23;7.75;;;2.78;;
46322;SDS011;32044;52.386;13.278;2023-02-01T12:30:16;10.40;;;2.40;;
46322;SDS011;32044;52.386;13.278;2023-02-01T12:32:55;11.32;;;2.65;;
46322;SDS011;32044;52.386;13.278;2023-02-01T12:35:41;17.77;;;3.22;;
46322;SDS011;32044;52.386;13.278;2023-02-01T12:38:17;10.85;;;2.75;;
46322;SDS011;32044;52.386;13.278;2023-02-01T12:40:57;8.60;;;2.47;;
46322;SDS011;32044;52.386;13.278;2023-02-01T12:43:36;13.98;;;2.75;;
46322;SDS011;32044;52.386;13.278;2023-02-01T12:46:07;8.98;;;2.28;;
46322;SDS011;32044;52.386;13.278;2023-02-01T12:48:56;12.63;;;2.42;;
46322;SDS011;32044;52.386;13.278;2023-02-01T12:51:28;9.63;;;2.47;;
46322;SDS011;32044;52.386;13.278;2023-02-01T12:56:30;9.82;;;2.47;;
46322;SDS011;32044;52.386;13.278;2023-02-01T12:59:01;8.88;;;2.20;;
46322;SDS011;32044;52.386;13.278;2023-02-01T13:01:31;8.40;;;2.42;;
46322;SDS011;32044;52.386;13.278;2023-02-01T13:04:03;12.07;;;2.67;;
46322;SDS011;32044;52.386;13.278;2023-02-01T13:06:37;10.18;;;2.53;;
46322;SDS011;32044;52.386;13.278;2023-02-01T13:09:19;8.75;;;2.55;;
46322;SDS011;32044;52.386;13.278;2023-02-01T13:11:50;9.77;;;2.72;;
46322;SDS011;32044;52.386;13.278;2023-02-01T13:14:24;12.35;;;2.42;;
46322;SDS011;32044;52.386;13.278;2023-02-01T13:16:56;7.60;;;2.28;;
46322;SDS011;32044;52.386;13.278;2023-02-01T13:19:28;8.85;;;2.22;;
46322;SDS011;32044;52.386;13.278;2023-02-01T13:21:58;11.38;;;2.50;;
46322;SDS011;32044;52.386;13.278;2023-02-01T13:24:36;8.25;;;2.83;;
46322;SDS011;32044;52.386;13.278;2023-02-01T13:27:08;10.88;;;2.78;;
46322;SDS011;32044;52.386;13.278;2023-02-01T13:29:37;9.57;;;2.30;;
46322;SDS011;32044;52.386;13.278;2023-02-01T13:35:37;15.00;;;3.35;;
46322;SDS011;32044;52.386;13.278;2023-02-01T13:38:26;7.50;;;2.25;;
46322;SDS011;32044;52.386;13.278;2023-02-01T13:41:16;13.52;;;3.05;;
46322;SDS011;32044;52.386;13.278;2023-02-01T13:43:54;11.82;;;2.50;;
46322;SDS011;32044;52.386;13.278;2023-02-01T13:46:23;9.55;;;3.13;;
46322;SDS011;32044;52.386;13.278;2023-02-01T13:49:00;14.82;;;2.85;;
46322;SDS011;32044;52.386;13.278;2023-02-01T13:51:32;11.15;;;2.67;;
46322;SDS011;32044;52.386;13.278;2023-02-01T13:54:04;17.67;;;3.47;;
46322;SDS011;32044;52.386;13.278;2023-02-01T13:56:40;15.57;;;2.90;;
46322;SDS011;32044;52.386;13.278;2023-02-01T14:05:07;14.95;;;3.42;;
46322;SDS011;32044;52.386;13.278;2023-02-01T14:07:35;20.90;;;4.53;;
46322;SDS011;32044;52.386;13.278;2023-02-01T14:13:11;14.57;;;3.10;;
46322;SDS011;32044;52.386;13.278;2023-02-01T14:15:40;14.32;;;3.50;;
46322;SDS011;32044;52.386;13.278;2023-02-01T14:19:00;18.60;;;3.92;;
46322;SDS011;32044;52.386;13.278;2023-02-01T14:21:29;14.38;;;3.05;;
46322;SDS011;32044;52.386;13.278;2023-02-01T14:24:00;19.33;;;3.63;;
46322;SDS011;32044;52.386;13.278;2023-02-01T14:26:40;16.65;;;3.42;;
46322;SDS011;32044;52.386;13.278;2023-02-01T14:29:18;13.45;;;4.45;;
46322;SDS011;32044;52.386;13.278;2023-02-01T14:31:52;18.83;;;3.55;;
46322;SDS011;32044;52.386;13.278;2023-02-01T14:34:31;12.18;;;3.20;;
46322;SDS011;32044;52.386;13.278;2023-02-01T14:37:02;19.80;;;3.70;;
46322;SDS011;32044;52.386;13.278;2023-02-01T14:39:32;14.70;;;3.50;;
46322;SDS011;32044;52.386;13.278;2023-02-01T14:42:04;13.50;;;3.80;;
46322;SDS011;32044;52.386;13.278;2023-02-01T14:44:41;13.88;;;3.75;;
46322;SDS011;32044;52.386;13.278;2023-02-01T14:50:10;14.38;;;3.20;;
46322;SDS011;32044;52.386;13.278;2023-02-01T14:52:42;18.40;;;3.42;;
46322;SDS011;32044;52.386;13.278;2023-02-01T14:55:13;14.48;;;2.83;;
46322;SDS011;32044;52.386;13.278;2023-02-01T14:57:45;12.00;;;2.92;;
46322;SDS011;32044;52.386;13.278;2023-02-01T15:00:19;15.35;;;3.47;;
46322;SDS011;32044;52.386;13.278;2023-02-01T15:02:50;13.50;;;3.33;;
46322;SDS011;32044;52.386;13.278;2023-02-01T15:05:30;9.20;;;2.90;;
46322;SDS011;32044;52.386;13.278;2023-02-01T15:08:05;8.60;;;2.78;;
46322;SDS011;32044;52.386;13.278;2023-02-01T15:10:39;13.18;;;2.35;;
46322;SDS011;32044;52.386;13.278;2023-02-01T15:13:17;13.02;;;3.00;;
46322;SDS011;32044;52.386;13.278;2023-02-01T15:18:32;10.50;;;2.20;;
46322;SDS011;32044;52.386;13.278;2023-02-01T15:21:00;4.70;;;1.92;;